sensor_id;sensor_type;location;lat;lon;timestamp;temperature;humidity
41310;DHT22;27057;51.438;-0.010;2023-08-30T00:01:41;15.80;99.90
41310;DHT22;27057;51.438;-0.010;2023-08-30T00:04:09;15.70;99.90
41310;DHT22;27057;51.438;-0.010;2023-08-30T00:06:36;15.70;99.90
41310;DHT22;27057;51.438;-0.010;2023-08-30T00:09:04;15.60;99.90
41310;DHT22;27057;51.438;-0.010;2023-08-30T00:11:31;15.50;99.90
41310;DHT22;27057;51.438;-0.010;2023-08-30T00:14:03;15.50;99.90
41310;DHT22;27057;51.438;-0.010;2023-08-30T00:16:33;15.40;99.90
41310;DHT22;27057;51.438;-0.010;2023-08-30T00:19:01;15.40;99.90
41310;DHT22;27057;51.438;-0.010;2023-08-30T00:21:28;15.20;99.90
41310;DHT22;27057;51.438;-0.010;2023-08-30T00:23:55;15.20;99.90
41310;DHT22;27057;51.438;-0.010;2023-08-30T00:26:23;15.10;99.90
41310;DHT22;27057;51.438;-0.010;2023-08-30T00:28:50;15.00;99.90
41310;DHT22;27057;51.438;-0.010;2023-08-30T00:31:18;15.00;99.90
41310;DHT22;27057;51.438;-0.010;2023-08-30T00:33:45;15.00;99.90
41310;DHT22;27057;51.438;-0.010;2023-08-30T00:36:13;15.00;99.90
41310;DHT22;27057;51.438;-0.010;2023-08-30T00:38:40;15.00;99.90
41310;DHT22;27057;51.438;-0.010;2023-08-30T00:41:08;15.00;99.90
41310;DHT22;27057;51.438;-0.010;2023-08-30T00:43:35;15.00;99.90
41310;DHT22;27057;51.438;-0.010;2023-08-30T00:46:03;15.00;99.90
41310;DHT22;27057;51.438;-0.010;2023-08-30T00:48:30;15.00;99.90
41310;DHT22;27057;51.438;-0.010;2023-08-30T00:50:58;14.90;99.90
41310;DHT22;27057;51.438;-0.010;2023-08-30T00:53:25;14.90;99.90
41310;DHT22;27057;51.438;-0.010;2023-08-30T00:55:53;14.90;99.90
41310;DHT22;27057;51.438;-0.010;2023-08-30T00:58:20;14.90;99.90
41310;DHT22;27057;51.438;-0.010;2023-08-30T01:00:48;14.90;99.90
41310;DHT22;27057;51.438;-0.010;2023-08-30T01:03:15;14.90;99.90
41310;DHT22;27057;51.438;-0.010;2023-08-30T01:05:44;15.00;99.90
41310;DHT22;27057;51.438;-0.010;2023-08-30T01:08:11;15.00;99.90
41310;DHT22;27057;51.438;-0.010;2023-08-30T01:13:26;15.10;99.90
41310;DHT22;27057;51.438;-0.010;2023-08-30T01:15:58;15.10;99.90
41310;DHT22;27057;51.438;-0.010;2023-08-30T01:18:32;15.10;99.90
41310;DHT22;27057;51.438;-0.010;2023-08-30T01:21:02;15.20;99.90
41310;DHT22;27057;51.438;-0.010;2023-08-30T01:26:13;15.10;99.90
41310;DHT22;27057;51.438;-0.010;2023-08-30T01:28:42;15.10;99.90
41310;DHT22;27057;51.438;-0.010;2023-08-30T01:31:10;15.10;99.90
41310;DHT22;27057;51.438;-0.010;2023-08-30T01:33:39;15.10;99.90
41310;DHT22;27057;51.438;-0.010;2023-08-30T01:36:07;15.10;99.90
41310;DHT22;27057;51.438;-0.010;2023-08-30T01:38:35;15.10;99.90
41310;DHT22;27057;51.438;-0.010;2023-08-30T01:41:04;15.10;99.90
41310;DHT22;27057;51.438;-0.010;2023-08-30T01:43:32;15.10;99.90
41310;DHT22;27057;51.438;-0.010;2023-08-30T01:46:01;15.10;99.90
41310;DHT22;27057;51.438;-0.010;2023-08-30T01:48:29;15.10;99.90
41310;DHT22;27057;51.438;-0.010;2023-08-30T01:50:58;15.10;99.90
41310;DHT22;27057;51.438;-0.010;2023-08-30T01:53:28;15.00;99.90
41310;DHT22;27057;51.438;-0.010;2023-08-30T01:55:56;15.10;99.90
41310;DHT22;27057;51.438;-0.010;2023-08-30T01:58:25;15.10;99.90
41310;DHT22;27057;51.438;-0.010;2023-08-30T02:00:52;15.00;99.90
41310;DHT22;27057;51.438;-0.010;2023-08-30T02:03:20;15.00;99.90
41310;DHT22;27057;51.438;-0.010;2023-08-30T02:06:07;14.20;99.90
41310;DHT22;27057;51.438;-0.010;2023-08-30T02:08:52;14.80;99.90
41310;DHT22;27057;51.438;-0.010;2023-08-30T02:11:23;14.80;99.90
41310;DHT22;27057;51.438;-0.010;2023-08-30T02:13:57;14.70;99.90
41310;DHT22;27057;51.438;-0.010;2023-08-30T02:16:26;14.70;99.90
41310;DHT22;27057;51.438;-0.010;2023-08-30T02:18:55;14.70;99.90
41310;DHT22;27057;51.438;-0.010;2023-08-30T02:21:23;14.60;99.90
41310;DHT22;27057;51.438;-0.010;2023-08-30T02:23:51;14.60;99.90
41310;DHT22;27057;51.438;-0.010;2023-08-30T02:26:19;14.50;99.90
41310;DHT22;27057;51.438;-0.010;2023-08-30T02:28:47;14.50;99.90
41310;DHT22;27057;51.438;-0.010;2023-08-30T02:31:14;14.40;99.90
41310;DHT22;27057;51.438;-0.010;2023-08-30T02:33:42;14.50;99.90
41310;DHT22;27057;51.438;-0.010;2023-08-30T02:36:11;14.50;99.90
41310;DHT22;27057;51.438;-0.010;2023-08-30T02:38:38;14.40;99.90
41310;DHT22;27057;51.438;-0.010;2023-08-30T02:41:06;14.40;99.90
41310;DHT22;27057;51.438;-0.010;2023-08-30T02:43:33;14.70;99.90
41310;DHT22;27057;51.438;-0.010;2023-08-30T02:46:00;14.40;99.90
41310;DHT22;27057;51.438;-0.010;2023-08-30T02:48:29;14.40;99.90
41310;DHT22;27057;51.438;-0.010;2023-08-30T02:50:56;14.40;99.90
41310;DHT22;27057;51.438;-0.010;2023-08-30T02:53:24;14.40;99.90
41310;DHT22;27057;51.438;-0.010;2023-08-30T02:55:52;14.40;99.90
41310;DHT22;27057;51.438;-0.010;2023-08-30T02:58:22;14.40;99.90
41310;DHT22;27057;51.438;-0.010;2023-08-30T03:00:52;14.30;99.90
41310;DHT22;27057;51.438;-0.010;2023-08-30T03:03:20;14.30;99.90
41310;DHT22;27057;51.438;-0.010;2023-08-30T03:05:47;14.30;99.90
41310;DHT22;27057;51.438;-0.010;2023-08-30T03:08:17;14.30;99.90
41310;DHT22;27057;51.438;-0.010;2023-08-30T03:10:44;14.30;99.90
41310;DHT22;27057;51.438;-0.010;2023-08-30T03:13:13;14.30;99.90
41310;DHT22;27057;51.438;-0.010;2023-08-30T03:15:40;14.20;99.90
41310;DHT22;27057;51.438;-0.010;2023-08-30T03:18:08;14.20;99.90
41310;DHT22;27057;51.438;-0.010;2023-08-30T03:20:36;14.20;99.90
41310;DHT22;27057;51.438;-0.010;2023-08-30T03:23:03;14.20;99.90
41310;DHT22;27057;51.438;-0.010;2023-08-30T03:25:33;14.10;99.90
41310;DHT22;27057;51.438;-0.010;2023-08-30T03:28:00;14.20;99.90
41310;DHT22;27057;51.438;-0.010;2023-08-30T03:30:29;14.00;99.90
41310;DHT22;27057;51.438;-0.010;2023-08-30T03:32:57;14.00;99.90
41310;DHT22;27057;51.438;-0.010;2023-08-30T03:35:25;13.90;99.90
41310;DHT22;27057;51.438;-0.010;2023-08-30T03:37:52;13.80;99.90
41310;DHT22;27057;51.438;-0.010;2023-08-30T03:40:19;13.80;99.90
41310;DHT22;27057;51.438;-0.010;2023-08-30T03:42:48;13.80;99.90
41310;DHT22;27057;51.438;-0.010;2023-08-30T03:45:15;13.70;99.90
41310;DHT22;27057;51.438;-0.010;2023-08-30T03:47:43;13.70;99.90
41310;DHT22;27057;51.438;-0.010;2023-08-30T03:50:11;13.60;99.90
41310;DHT22;27057;51.438;-0.010;2023-08-30T03:52:40;13.60;99.90
41310;DHT22;27057;51.438;-0.010;2023-08-30T03:55:07;13.50;99.90
41310;DHT22;27057;51.438;-0.010;2023-08-30T03:57:35;13.50;99.90
41310;DHT22;27057;51.438;-0.010;2023-08-30T04:00:03;13.50;99.90
41310;DHT22;27057;51.438;-0.010;2023-08-30T04:02:40;13.40;99.90
41310;DHT22;27057;51.438;-0.010;2023-08-30T04:05:08;13.40;99.90
41310;DHT22;27057;51.438;-0.010;2023-08-30T04:07:38;13.40;99.90
41310;DHT22;27057;51.438;-0.010;2023-08-30T04:10:05;13.40;99.90
41310;DHT22;27057;51.438;-0.010;2023-08-30T04:12:35;13.30;99.90
41310;DHT22;27057;51.438;-0.010;2023-08-30T04:15:02;13.30;99.90
41310;DHT22;27057;51.438;-0.010;2023-08-30T04:17:30;13.30;99.90
41310;DHT22;27057;51.438;-0.010;2023-08-30T04:19:57;13.20;99.90
41310;DHT22;27057;51.438;-0.010;2023-08-30T04:22:25;13.30;99.90
41310;DHT22;27057;51.438;-0.010;2023-08-30T04:24:52;13.10;99.90
41310;DHT22;27057;51.438;-0.010;2023-08-30T04:27:19;13.10;99.90
41310;DHT22;27057;51.438;-0.010;2023-08-30T04:29:47;13.10;99.90
41310;DHT22;27057;51.438;-0.010;2023-08-30T04:32:14;13.00;99.90
41310;DHT22;27057;51.438;-0.010;2023-08-30T04:34:42;13.00;99.90
41310;DHT22;27057;51.438;-0.010;2023-08-30T04:37:09;13.00;99.90
41310;DHT22;27057;51.438;-0.010;2023-08-30T04:39:36;13.00;99.90
41310;DHT22;27057;51.438;-0.010;2023-08-30T04:42:04;12.90;99.90
41310;DHT22;27057;51.438;-0.010;2023-08-30T04:44:32;12.90;99.90
41310;DHT22;27057;51.438;-0.010;2023-08-30T04:46:59;12.80;99.90
41310;DHT22;27057;51.438;-0.010;2023-08-30T04:49:26;12.80;99.90
41310;DHT22;27057;51.438;-0.010;2023-08-30T04:51:56;13.10;99.90
41310;DHT22;27057;51.438;-0.010;2023-08-30T04:54:23;12.80;99.90
41310;DHT22;27057;51.438;-0.010;2023-08-30T04:56:51;12.70;99.90
41310;DHT22;27057;51.438;-0.010;2023-08-30T04:59:18;12.70;99.90
41310;DHT22;27057;51.438;-0.010;2023-08-30T05:01:47;12.70;99.90
41310;DHT22;27057;51.438;-0.010;2023-08-30T05:04:16;12.70;99.90
41310;DHT22;27057;51.438;-0.010;2023-08-30T05:06:43;12.60;99.90
41310;DHT22;27057;51.438;-0.010;2023-08-30T05:09:11;12.60;99.90
41310;DHT22;27057;51.438;-0.010;2023-08-30T05:11:38;12.60;99.90
41310;DHT22;27057;51.438;-0.010;2023-08-30T05:14:07;12.60;99.90
41310;DHT22;27057;51.438;-0.010;2023-08-30T05:16:34;12.60;99.90
41310;DHT22;27057;51.438;-0.010;2023-08-30T05:19:02;12.60;99.90
41310;DHT22;27057;51.438;-0.010;2023-08-30T05:21:29;12.60;99.90
41310;DHT22;27057;51.438;-0.010;2023-08-30T05:23:56;12.60;99.90
41310;DHT22;27057;51.438;-0.010;2023-08-30T05:26:24;12.60;99.90
41310;DHT22;27057;51.438;-0.010;2023-08-30T05:28:51;12.50;99.90
41310;DHT22;27057;51.438;-0.010;2023-08-30T05:31:19;12.60;99.90
41310;DHT22;27057;51.438;-0.010;2023-08-30T05:34:18;12.60;99.90
41310;DHT22;27057;51.438;-0.010;2023-08-30T05:37:05;12.60;99.90
41310;DHT22;27057;51.438;-0.010;2023-08-30T05:39:49;12.60;99.90
41310;DHT22;27057;51.438;-0.010;2023-08-30T05:42:17;12.60;99.90
41310;DHT22;27057;51.438;-0.010;2023-08-30T05:44:44;12.50;99.90
41310;DHT22;27057;51.438;-0.010;2023-08-30T05:47:12;12.60;99.90
41310;DHT22;27057;51.438;-0.010;2023-08-30T05:49:42;12.60;99.90
41310;DHT22;27057;51.438;-0.010;2023-08-30T05:52:09;12.50;99.90
41310;DHT22;27057;51.438;-0.010;2023-08-30T05:54:36;12.60;99.90
41310;DHT22;27057;51.438;-0.010;2023-08-30T05:57:04;12.60;99.90
41310;DHT22;27057;51.438;-0.010;2023-08-30T05:59:31;12.60;99.90
41310;DHT22;27057;51.438;-0.010;2023-08-30T06:01:58;12.60;99.90
41310;DHT22;27057;51.438;-0.010;2023-08-30T06:04:26;12.60;99.90
41310;DHT22;27057;51.438;-0.010;2023-08-30T06:06:53;12.60;99.90
41310;DHT22;27057;51.438;-0.010;2023-08-30T06:09:21;12.70;99.90
41310;DHT22;27057;51.438;-0.010;2023-08-30T06:11:48;12.70;99.90
41310;DHT22;27057;51.438;-0.010;2023-08-30T06:14:16;12.70;99.90
41310;DHT22;27057;51.438;-0.010;2023-08-30T06:16:43;12.70;99.90
41310;DHT22;27057;51.438;-0.010;2023-08-30T06:19:11;12.70;99.90
41310;DHT22;27057;51.438;-0.010;2023-08-30T06:21:38;12.80;99.90
41310;DHT22;27057;51.438;-0.010;2023-08-30T06:24:06;12.70;99.90
41310;DHT22;27057;51.438;-0.010;2023-08-30T06:26:34;12.80;99.90
41310;DHT22;27057;51.438;-0.010;2023-08-30T06:29:01;12.90;99.90
41310;DHT22;27057;51.438;-0.010;2023-08-30T06:31:31;12.90;99.90
41310;DHT22;27057;51.438;-0.010;2023-08-30T06:34:00;13.00;99.90
41310;DHT22;27057;51.438;-0.010;2023-08-30T06:36:27;13.00;99.90
41310;DHT22;27057;51.438;-0.010;2023-08-30T06:38:54;13.10;99.90
41310;DHT22;27057;51.438;-0.010;2023-08-30T06:41:22;13.10;99.90
41310;DHT22;27057;51.438;-0.010;2023-08-30T06:43:50;13.20;99.90
41310;DHT22;27057;51.438;-0.010;2023-08-30T06:46:17;13.20;99.90
41310;DHT22;27057;51.438;-0.010;2023-08-30T06:48:45;13.30;99.90
41310;DHT22;27057;51.438;-0.010;2023-08-30T06:51:12;13.40;99.90
41310;DHT22;27057;51.438;-0.010;2023-08-30T06:53:39;13.50;99.90
41310;DHT22;27057;51.438;-0.010;2023-08-30T06:56:07;13.50;99.90
41310;DHT22;27057;51.438;-0.010;2023-08-30T06:58:34;13.50;99.90
41310;DHT22;27057;51.438;-0.010;2023-08-30T07:01:02;13.50;99.90
41310;DHT22;27057;51.438;-0.010;2023-08-30T07:03:30;13.70;99.90
41310;DHT22;27057;51.438;-0.010;2023-08-30T07:05:57;13.70;99.90
41310;DHT22;27057;51.438;-0.010;2023-08-30T07:08:25;13.70;99.90
41310;DHT22;27057;51.438;-0.010;2023-08-30T07:10:53;13.70;99.90
41310;DHT22;27057;51.438;-0.010;2023-08-30T07:13:21;13.70;99.90
41310;DHT22;27057;51.438;-0.010;2023-08-30T07:15:48;13.90;99.90
41310;DHT22;27057;51.438;-0.010;2023-08-30T07:18:16;13.80;99.90
41310;DHT22;27057;51.438;-0.010;2023-08-30T07:20:43;13.80;99.90
41310;DHT22;27057;51.438;-0.010;2023-08-30T07:23:11;14.00;99.90
41310;DHT22;27057;51.438;-0.010;2023-08-30T07:25:39;14.00;99.90
41310;DHT22;27057;51.438;-0.010;2023-08-30T07:28:06;14.00;99.90
41310;DHT22;27057;51.438;-0.010;2023-08-30T07:30:34;14.00;99.90
41310;DHT22;27057;51.438;-0.010;2023-08-30T07:33:05;14.00;99.90
41310;DHT22;27057;51.438;-0.010;2023-08-30T07:35:32;14.10;99.90
41310;DHT22;27057;51.438;-0.010;2023-08-30T07:38:00;14.10;99.90
41310;DHT22;27057;51.438;-0.010;2023-08-30T07:40:27;14.10;99.90
41310;DHT22;27057;51.438;-0.010;2023-08-30T07:42:56;14.20;99.90
41310;DHT22;27057;51.438;-0.010;2023-08-30T07:45:26;14.20;99.90
41310;DHT22;27057;51.438;-0.010;2023-08-30T07:47:53;14.30;99.90
41310;DHT22;27057;51.438;-0.010;2023-08-30T07:50:21;14.30;99.90
41310;DHT22;27057;51.438;-0.010;2023-08-30T07:52:48;14.40;99.90
41310;DHT22;27057;51.438;-0.010;2023-08-30T07:55:16;14.50;99.90
41310;DHT22;27057;51.438;-0.010;2023-08-30T07:57:43;14.50;99.90
41310;DHT22;27057;51.438;-0.010;2023-08-30T08:00:11;14.60;99.90
41310;DHT22;27057;51.438;-0.010;2023-08-30T08:02:40;14.70;99.90
41310;DHT22;27057;51.438;-0.010;2023-08-30T08:05:08;14.80;99.90
41310;DHT22;27057;51.438;-0.010;2023-08-30T08:07:39;14.80;99.90
41310;DHT22;27057;51.438;-0.010;2023-08-30T08:10:08;14.90;99.90
41310;DHT22;27057;51.438;-0.010;2023-08-30T08:12:36;15.00;99.90
41310;DHT22;27057;51.438;-0.010;2023-08-30T08:15:04;15.00;99.90
41310;DHT22;27057;51.438;-0.010;2023-08-30T08:17:31;15.00;99.90
41310;DHT22;27057;51.438;-0.010;2023-08-30T08:19:58;15.10;99.90
41310;DHT22;27057;51.438;-0.010;2023-08-30T08:22:26;15.20;99.90
41310;DHT22;27057;51.438;-0.010;2023-08-30T08:24:54;15.30;99.90
41310;DHT22;27057;51.438;-0.010;2023-08-30T08:27:25;15.40;99.90
41310;DHT22;27057;51.438;-0.010;2023-08-30T08:29:52;15.40;99.90
41310;DHT22;27057;51.438;-0.010;2023-08-30T08:32:20;15.50;99.90
41310;DHT22;27057;51.438;-0.010;2023-08-30T08:34:47;15.90;99.90
41310;DHT22;27057;51.438;-0.010;2023-08-30T08:37:15;15.60;99.90
41310;DHT22;27057;51.438;-0.010;2023-08-30T08:39:42;15.60;99.90
41310;DHT22;27057;51.438;-0.010;2023-08-30T08:42:10;15.70;99.90
41310;DHT22;27057;51.438;-0.010;2023-08-30T08:44:38;15.80;99.90
41310;DHT22;27057;51.438;-0.010;2023-08-30T08:47:07;15.90;99.90
41310;DHT22;27057;51.438;-0.010;2023-08-30T08:49:34;15.90;99.90
41310;DHT22;27057;51.438;-0.010;2023-08-30T08:52:02;15.80;99.90
41310;DHT22;27057;51.438;-0.010;2023-08-30T08:54:43;15.90;99.90
41310;DHT22;27057;51.438;-0.010;2023-08-30T08:57:10;15.90;99.90
41310;DHT22;27057;51.438;-0.010;2023-08-30T08:59:38;15.90;99.90
41310;DHT22;27057;51.438;-0.010;2023-08-30T09:02:05;15.90;99.90
41310;DHT22;27057;51.438;-0.010;2023-08-30T09:04:33;15.90;99.90
41310;DHT22;27057;51.438;-0.010;2023-08-30T09:07:00;15.80;99.90
41310;DHT22;27057;51.438;-0.010;2023-08-30T09:09:29;15.80;99.90
41310;DHT22;27057;51.438;-0.010;2023-08-30T09:11:56;15.80;99.90
41310;DHT22;27057;51.438;-0.010;2023-08-30T09:14:23;15.70;99.90
41310;DHT22;27057;51.438;-0.010;2023-08-30T09:17:02;15.70;99.90
41310;DHT22;27057;51.438;-0.010;2023-08-30T09:19:29;15.70;99.90
41310;DHT22;27057;51.438;-0.010;2023-08-30T09:21:58;15.60;99.90
41310;DHT22;27057;51.438;-0.010;2023-08-30T09:24:37;15.70;99.90
41310;DHT22;27057;51.438;-0.010;2023-08-30T09:27:05;15.90;99.90
41310;DHT22;27057;51.438;-0.010;2023-08-30T09:29:33;15.90;99.90
41310;DHT22;27057;51.438;-0.010;2023-08-30T09:32:01;16.10;99.90
41310;DHT22;27057;51.438;-0.010;2023-08-30T09:34:28;16.20;99.90
41310;DHT22;27057;51.438;-0.010;2023-08-30T09:36:55;16.40;99.90
41310;DHT22;27057;51.438;-0.010;2023-08-30T09:39:23;16.60;99.90
41310;DHT22;27057;51.438;-0.010;2023-08-30T09:41:50;16.80;99.90
41310;DHT22;27057;51.438;-0.010;2023-08-30T09:44:19;16.90;99.90
41310;DHT22;27057;51.438;-0.010;2023-08-30T09:46:53;17.00;99.90
41310;DHT22;27057;51.438;-0.010;2023-08-30T09:49:25;17.10;99.90
41310;DHT22;27057;51.438;-0.010;2023-08-30T09:51:54;17.20;99.90
41310;DHT22;27057;51.438;-0.010;2023-08-30T09:54:23;17.10;99.90
41310;DHT22;27057;51.438;-0.010;2023-08-30T09:56:54;17.20;99.90
41310;DHT22;27057;51.438;-0.010;2023-08-30T09:59:25;17.30;99.90
41310;DHT22;27057;51.438;-0.010;2023-08-30T10:01:53;17.30;99.90
41310;DHT22;27057;51.438;-0.010;2023-08-30T10:04:23;17.40;99.90
41310;DHT22;27057;51.438;-0.010;2023-08-30T10:06:51;17.40;99.90
41310;DHT22;27057;51.438;-0.010;2023-08-30T10:09:21;17.30;99.90
41310;DHT22;27057;51.438;-0.010;2023-08-30T10:11:49;17.30;99.90
41310;DHT22;27057;51.438;-0.010;2023-08-30T10:14:17;17.40;99.90
41310;DHT22;27057;51.438;-0.010;2023-08-30T10:16:46;17.40;99.90
41310;DHT22;27057;51.438;-0.010;2023-08-30T10:19:14;17.60;99.90
41310;DHT22;27057;51.438;-0.010;2023-08-30T10:21:44;17.80;99.90
41310;DHT22;27057;51.438;-0.010;2023-08-30T10:24:17;18.00;99.90
41310;DHT22;27057;51.438;-0.010;2023-08-30T10:27:03;18.00;99.90
41310;DHT22;27057;51.438;-0.010;2023-08-30T10:29:33;17.90;99.90
41310;DHT22;27057;51.438;-0.010;2023-08-30T10:32:05;17.70;99.90
41310;DHT22;27057;51.438;-0.010;2023-08-30T10:34:36;17.60;99.90
41310;DHT22;27057;51.438;-0.010;2023-08-30T10:37:07;17.70;99.90
41310;DHT22;27057;51.438;-0.010;2023-08-30T10:39:36;17.80;99.90
41310;DHT22;27057;51.438;-0.010;2023-08-30T10:42:14;17.80;99.90
41310;DHT22;27057;51.438;-0.010;2023-08-30T10:47:39;18.10;99.90
41310;DHT22;27057;51.438;-0.010;2023-08-30T10:50:09;18.20;99.90
41310;DHT22;27057;51.438;-0.010;2023-08-30T10:52:38;18.40;99.90
41310;DHT22;27057;51.438;-0.010;2023-08-30T10:57:33;18.30;99.90
41310;DHT22;27057;51.438;-0.010;2023-08-30T11:00:12;18.40;99.90
41310;DHT22;27057;51.438;-0.010;2023-08-30T11:02:47;18.60;99.90
41310;DHT22;27057;51.438;-0.010;2023-08-30T11:05:20;18.60;99.90
41310;DHT22;27057;51.438;-0.010;2023-08-30T11:07:48;18.90;99.90
41310;DHT22;27057;51.438;-0.010;2023-08-30T11:10:18;19.00;99.90
41310;DHT22;27057;51.438;-0.010;2023-08-30T11:12:47;19.10;99.90
41310;DHT22;27057;51.438;-0.010;2023-08-30T11:15:16;19.30;99.90
41310;DHT22;27057;51.438;-0.010;2023-08-30T11:17:45;19.60;99.90
41310;DHT22;27057;51.438;-0.010;2023-08-30T11:20:15;19.70;99.90
41310;DHT22;27057;51.438;-0.010;2023-08-30T11:22:48;19.60;99.90
41310;DHT22;27057;51.438;-0.010;2023-08-30T11:25:16;19.40;99.90
41310;DHT22;27057;51.438;-0.010;2023-08-30T11:27:44;19.00;99.90
41310;DHT22;27057;51.438;-0.010;2023-08-30T11:30:13;18.80;99.90
41310;DHT22;27057;51.438;-0.010;2023-08-30T11:32:41;18.70;99.90
41310;DHT22;27057;51.438;-0.010;2023-08-30T11:35:12;18.60;99.90
41310;DHT22;27057;51.438;-0.010;2023-08-30T11:37:40;18.60;99.90
41310;DHT22;27057;51.438;-0.010;2023-08-30T11:40:11;18.60;99.90
41310;DHT22;27057;51.438;-0.010;2023-08-30T11:42:38;18.70;99.90
41310;DHT22;27057;51.438;-0.010;2023-08-30T11:45:07;18.80;99.90
41310;DHT22;27057;51.438;-0.010;2023-08-30T11:47:34;19.00;99.90
41310;DHT22;27057;51.438;-0.010;2023-08-30T11:50:02;19.20;99.90
41310;DHT22;27057;51.438;-0.010;2023-08-30T11:52:31;19.30;99.90
41310;DHT22;27057;51.438;-0.010;2023-08-30T11:55:00;19.40;99.90
41310;DHT22;27057;51.438;-0.010;2023-08-30T11:57:27;19.50;99.90
41310;DHT22;27057;51.438;-0.010;2023-08-30T11:59:55;19.70;99.90
41310;DHT22;27057;51.438;-0.010;2023-08-30T12:02:22;19.70;99.90
41310;DHT22;27057;51.438;-0.010;2023-08-30T12:04:50;19.70;99.90
41310;DHT22;27057;51.438;-0.010;2023-08-30T12:07:27;19.80;99.90
41310;DHT22;27057;51.438;-0.010;2023-08-30T12:10:07;19.70;99.90
41310;DHT22;27057;51.438;-0.010;2023-08-30T12:12:36;19.70;99.90
41310;DHT22;27057;51.438;-0.010;2023-08-30T12:15:11;19.50;99.90
41310;DHT22;27057;51.438;-0.010;2023-08-30T12:17:38;19.50;99.90
41310;DHT22;27057;51.438;-0.010;2023-08-30T12:20:13;19.40;99.90
41310;DHT22;27057;51.438;-0.010;2023-08-30T12:22:42;19.50;99.90
41310;DHT22;27057;51.438;-0.010;2023-08-30T12:25:19;19.70;99.90
41310;DHT22;27057;51.438;-0.010;2023-08-30T12:27:47;19.90;99.90
41310;DHT22;27057;51.438;-0.010;2023-08-30T12:30:15;20.20;99.90
41310;DHT22;27057;51.438;-0.010;2023-08-30T12:32:44;20.20;99.90
41310;DHT22;27057;51.438;-0.010;2023-08-30T12:35:12;20.10;99.90
41310;DHT22;27057;51.438;-0.010;2023-08-30T12:37:40;20.20;99.90
41310;DHT22;27057;51.438;-0.010;2023-08-30T12:40:07;20.40;99.90
41310;DHT22;27057;51.438;-0.010;2023-08-30T12:42:35;20.50;99.90
41310;DHT22;27057;51.438;-0.010;2023-08-30T12:45:03;20.70;99.90
41310;DHT22;27057;51.438;-0.010;2023-08-30T12:47:31;20.80;99.90
41310;DHT22;27057;51.438;-0.010;2023-08-30T12:49:58;21.10;99.90
41310;DHT22;27057;51.438;-0.010;2023-08-30T12:52:25;21.30;99.90
41310;DHT22;27057;51.438;-0.010;2023-08-30T12:54:53;21.30;99.90
41310;DHT22;27057;51.438;-0.010;2023-08-30T12:57:21;21.10;99.90
41310;DHT22;27057;51.438;-0.010;2023-08-30T12:59:48;20.80;99.90
41310;DHT22;27057;51.438;-0.010;2023-08-30T13:02:15;20.70;99.90
41310;DHT22;27057;51.438;-0.010;2023-08-30T13:04:43;21.10;99.90
41310;DHT22;27057;51.438;-0.010;2023-08-30T13:07:10;21.80;99.90
41310;DHT22;27057;51.438;-0.010;2023-08-30T13:09:38;22.30;99.90
41310;DHT22;27057;51.438;-0.010;2023-08-30T13:12:06;22.60;99.90
41310;DHT22;27057;51.438;-0.010;2023-08-30T13:14:33;23.10;99.90
41310;DHT22;27057;51.438;-0.010;2023-08-30T13:17:00;23.30;99.90
41310;DHT22;27057;51.438;-0.010;2023-08-30T13:19:28;23.40;99.90
41310;DHT22;27057;51.438;-0.010;2023-08-30T13:21:55;23.50;99.90
41310;DHT22;27057;51.438;-0.010;2023-08-30T13:24:23;23.70;99.80
41310;DHT22;27057;51.438;-0.010;2023-08-30T13:26:51;23.60;99.90
41310;DHT22;27057;51.438;-0.010;2023-08-30T13:29:18;23.20;99.60
41310;DHT22;27057;51.438;-0.010;2023-08-30T13:31:46;22.90;99.90
41310;DHT22;27057;51.438;-0.010;2023-08-30T13:34:13;22.50;99.90
41310;DHT22;27057;51.438;-0.010;2023-08-30T13:36:40;22.20;99.90
41310;DHT22;27057;51.438;-0.010;2023-08-30T13:39:08;22.00;99.90
41310;DHT22;27057;51.438;-0.010;2023-08-30T13:41:35;22.10;99.90
41310;DHT22;27057;51.438;-0.010;2023-08-30T13:44:03;22.40;99.90
41310;DHT22;27057;51.438;-0.010;2023-08-30T13:46:31;22.80;99.90
41310;DHT22;27057;51.438;-0.010;2023-08-30T13:48:58;22.90;99.90
41310;DHT22;27057;51.438;-0.010;2023-08-30T13:51:26;23.10;99.80
41310;DHT22;27057;51.438;-0.010;2023-08-30T13:53:54;23.40;99.70
41310;DHT22;27057;51.438;-0.010;2023-08-30T13:56:23;23.60;98.90
41310;DHT22;27057;51.438;-0.010;2023-08-30T13:58:51;23.70;99.10
41310;DHT22;27057;51.438;-0.010;2023-08-30T14:01:18;23.90;98.70
41310;DHT22;27057;51.438;-0.010;2023-08-30T14:03:45;23.90;98.30
41310;DHT22;27057;51.438;-0.010;2023-08-30T14:06:13;24.00;98.20
41310;DHT22;27057;51.438;-0.010;2023-08-30T14:08:41;24.10;98.60
41310;DHT22;27057;51.438;-0.010;2023-08-30T14:11:08;24.30;98.00
41310;DHT22;27057;51.438;-0.010;2023-08-30T14:13:36;24.20;97.20
41310;DHT22;27057;51.438;-0.010;2023-08-30T14:16:03;24.20;97.30
41310;DHT22;27057;51.438;-0.010;2023-08-30T14:18:31;24.30;96.80
41310;DHT22;27057;51.438;-0.010;2023-08-30T14:20:59;24.30;95.70
41310;DHT22;27057;51.438;-0.010;2023-08-30T14:23:28;24.10;95.50
41310;DHT22;27057;51.438;-0.010;2023-08-30T14:26:00;24.20;95.90
41310;DHT22;27057;51.438;-0.010;2023-08-30T14:28:27;24.40;96.20
41310;DHT22;27057;51.438;-0.010;2023-08-30T14:30:55;24.30;95.10
41310;DHT22;27057;51.438;-0.010;2023-08-30T14:33:22;24.40;95.70
41310;DHT22;27057;51.438;-0.010;2023-08-30T14:35:50;24.50;95.50
41310;DHT22;27057;51.438;-0.010;2023-08-30T14:38:17;24.60;94.90
41310;DHT22;27057;51.438;-0.010;2023-08-30T14:40:54;24.90;94.50
41310;DHT22;27057;51.438;-0.010;2023-08-30T14:43:22;24.60;94.70
41310;DHT22;27057;51.438;-0.010;2023-08-30T14:45:49;24.50;94.90
41310;DHT22;27057;51.438;-0.010;2023-08-30T14:48:31;24.70;94.40
41310;DHT22;27057;51.438;-0.010;2023-08-30T14:50:59;24.70;94.00
41310;DHT22;27057;51.438;-0.010;2023-08-30T14:53:27;24.50;94.50
41310;DHT22;27057;51.438;-0.010;2023-08-30T14:55:55;24.40;94.40
41310;DHT22;27057;51.438;-0.010;2023-08-30T14:58:23;23.90;94.20
41310;DHT22;27057;51.438;-0.010;2023-08-30T15:00:51;23.70;94.70
41310;DHT22;27057;51.438;-0.010;2023-08-30T15:03:19;23.40;95.10
41310;DHT22;27057;51.438;-0.010;2023-08-30T15:05:52;23.20;95.50
41310;DHT22;27057;51.438;-0.010;2023-08-30T15:08:22;22.80;96.10
41310;DHT22;27057;51.438;-0.010;2023-08-30T15:10:50;22.30;96.80
41310;DHT22;27057;51.438;-0.010;2023-08-30T15:13:20;22.10;97.10
41310;DHT22;27057;51.438;-0.010;2023-08-30T15:15:48;22.00;97.40
41310;DHT22;27057;51.438;-0.010;2023-08-30T15:18:15;22.20;97.60
41310;DHT22;27057;51.438;-0.010;2023-08-30T15:20:44;22.30;97.40
41310;DHT22;27057;51.438;-0.010;2023-08-30T15:23:13;22.70;97.10
41310;DHT22;27057;51.438;-0.010;2023-08-30T15:25:46;23.20;96.70
41310;DHT22;27057;51.438;-0.010;2023-08-30T15:28:15;23.80;95.90
41310;DHT22;27057;51.438;-0.010;2023-08-30T15:30:46;24.40;95.30
41310;DHT22;27057;51.438;-0.010;2023-08-30T15:33:15;24.60;94.90
41310;DHT22;27057;51.438;-0.010;2023-08-30T15:36:03;24.60;94.90